Time;durP1;ratioP1;P1;durP2;ratioP2;P2;SDS_P1;SDS_P2;PMS_P1;PMS_P2;Temp;Humidity;BMP_temperature;BMP_pressure;BME280_temperature;BME280_humidity;BME280_pressure;Samples;Min_cycle;Max_cycle;Signal;HPM_P1;HPM_P2
2022/05/23 00:00:40;;;;;;;4.70;2.90;;;;;;;10.18;90.56;98596.71;109300;1276;22594;-62
2022/05/23 00:03:08;;;;;;;5.70;3.20;;;;;;;10.20;90.53;98599.11;109214;1276;138490;-65
2022/05/23 00:05:36;;;;;;;3.60;2.80;;;;;;;10.20;90.48;98603.69;109327;1275;23265;-65
2022/05/23 00:08:07;;;;;;;4.40;2.90;;;;;;;10.19;90.39;98605.38;109208;1276;138149;-63
2022/05/23 00:10:35;;;;;;;4.10;3.40;;;;;;;10.18;90.47;98610.10;109370;1274;23945;-63
2022/05/23 00:13:07;;;;;;;4.10;3.10;;;;;;;10.18;90.40;98611.40;109213;1274;138816;-62
2022/05/23 00:15:35;;;;;;;3.60;2.80;;;;;;;10.19;90.44;98613.15;109337;1274;23059;-56
2022/05/23 00:18:04;;;;;;;3.80;3.40;;;;;;;10.18;90.42;98614.67;109388;1274;22420;-56
2022/05/23 00:20:34;;;;;;;3.60;3.10;;;;;;;10.18;90.39;98613.30;109247;1275;138091;-56
2022/05/23 00:23:02;;;;;;;6.50;3.00;;;;;;;10.18;90.36;98611.63;109271;1275;23366;-56
2022/05/23 00:25:30;;;;;;;3.20;2.80;;;;;;;10.18;90.35;98617.73;109176;1276;138652;-56
2022/05/23 00:27:59;;;;;;;4.20;3.00;;;;;;;10.20;90.33;98614.14;109347;1277;22479;-59
2022/05/23 00:30:27;;;;;;;5.50;3.50;;;;;;;10.20;90.21;98621.87;109362;1274;22385;-56
2022/05/23 00:35:45;;;;;;;4.80;3.40;;;;;;;10.18;90.01;98629.21;109368;1276;22433;-56
2022/05/23 00:38:14;;;;;;;4.90;3.40;;;;;;;10.16;90.04;98629.09;109121;1277;138782;-58
2022/05/23 00:43:55;;;;;;;5.20;3.10;;;;;;;10.18;90.19;98632.70;109121;1275;138270;-58
2022/05/23 00:46:24;;;;;;;3.50;3.00;;;;;;;10.19;90.16;98634.29;109274;1274;22471;-58
2022/05/23 00:48:52;;;;;;;3.80;3.10;;;;;;;10.18;90.13;98635.52;109324;1275;22413;-58
2022/05/23 00:51:20;;;;;;;5.40;2.90;;;;;;;10.18;90.03;98635.78;109143;1277;137795;-58
2022/05/23 00:53:54;;;;;;;5.00;3.40;;;;;;;10.18;89.96;98637.91;109247;1277;22556;-58
2022/05/23 00:56:23;;;;;;;6.20;3.30;;;;;;;10.18;89.80;98634.48;109117;1277;138338;-58
2022/05/23 00:58:53;;;;;;;6.40;3.40;;;;;;;10.18;89.83;98639.23;109269;1276;22439;-58
2022/05/23 01:01:23;;;;;;;8.90;3.30;;;;;;;10.18;89.78;98640.27;108972;1277;138146;-58
2022/05/23 01:03:52;;;;;;;5.30;3.50;;;;;;;10.18;89.83;98639.83;109003;1276;23318;-58
2022/05/23 01:06:20;;;;;;;4.70;3.10;;;;;;;10.19;89.84;98639.52;109200;1277;23260;-58
2022/05/23 01:08:51;;;;;;;5.00;3.10;;;;;;;10.20;89.69;98636.30;109104;1277;138940;-58
2022/05/23 01:11:19;;;;;;;4.30;2.90;;;;;;;10.22;89.83;98636.67;109197;1276;23302;-58
2022/05/23 01:13:53;;;;;;;4.00;3.20;;;;;;;10.23;89.78;98638.96;109038;1277;138143;-56
2022/05/23 01:16:22;;;;;;;5.30;3.40;;;;;;;10.24;89.77;98636.77;109309;1274;22947;-58
2022/05/23 01:18:50;;;;;;;5.50;3.80;;;;;;;10.24;89.72;98646.63;109299;1276;22437;-58
2022/05/23 01:21:41;;;;;;;4.70;3.30;;;;;;;10.21;89.54;98652.41;109106;1277;137927;-58
2022/05/23 01:24:19;;;;;;;3.30;2.90;;;;;;;10.16;89.50;98653.21;108961;1277;22462;-58
2022/05/23 01:26:51;;;;;;;3.90;3.20;;;;;;;10.14;89.50;98655.71;105958;1277;138452;-58
2022/05/23 01:29:33;;;;;;;3.70;3.40;;;;;;;10.13;89.57;98652.17;104647;1278;24122;-57
2022/05/23 01:32:10;;;;;;;8.40;3.70;;;;;;;10.12;89.41;98652.71;104719;1277;138901;-58
2022/05/23 01:34:42;;;;;;;5.30;3.70;;;;;;;10.09;89.29;98661.13;104860;1277;25112;-57
2022/05/23 01:37:12;;;;;;;6.50;4.40;;;;;;;10.05;89.28;98665.11;109281;1275;139335;-58
2022/05/23 01:40:11;;;;;;;6.80;4.50;;;;;;;10.01;89.21;98662.71;109277;1274;22979;-58
2022/05/23 01:42:55;;;;;;;6.90;6.00;;;;;;;9.97;89.42;98665.70;109334;1275;22450;-58
2022/05/23 01:45:27;;;;;;;9.40;5.90;;;;;;;9.93;89.37;98667.52;109086;1276;137776;-58
2022/05/23 01:47:56;;;;;;;8.20;5.30;;;;;;;9.91;89.80;98667.09;109394;1275;23299;-56
2022/05/23 01:50:24;;;;;;;5.70;5.10;;;;;;;9.90;89.78;98660.94;109146;1276;139393;-56
2022/05/23 01:53:00;;;;;;;6.50;5.10;;;;;;;9.90;90.00;98662.36;109355;1274;22363;-58
2022/05/23 01:55:34;;;;;;;7.50;5.40;;;;;;;9.92;90.06;98661.27;109172;1275;138201;-58
2022/05/23 01:58:13;;;;;;;5.70;4.80;;;;;;;9.93;90.14;98665.46;109318;1274;23281;-58
2022/05/23 02:04:09;;;;;;;5.70;5.10;;;;;;;9.93;90.03;98670.63;101829;1310;546060;-57
2022/05/23 02:06:41;;;;;;;11.40;5.10;;;;;;;9.88;90.02;98671.61;108415;1284;23622;-57
2022/05/23 02:09:26;;;;;;;12.50;6.20;;;;;;;9.84;90.03;98677.70;108160;1285;137452;-58
2022/05/23 02:12:17;;;;;;;16.30;8.00;;;;;;;9.79;90.32;98677.67;108339;1286;22405;-58
2022/05/23 02:14:47;;;;;;;18.10;9.20;;;;;;;9.77;90.50;98682.98;108113;1286;137252;-58
2022/05/23 02:17:44;;;;;;;;;;;;;;;9.79;90.73;98681.69;107994;1284;207234;-58
2022/05/23 02:20:14;;;;;;;20.40;8.90;;;;;;;9.81;90.74;98680.77;108325;1284;124690;-58
2022/05/23 02:22:44;;;;;;;18.10;10.30;;;;;;;9.83;90.99;98680.91;108336;1284;23322;-57
2022/05/23 02:25:19;;;;;;;22.00;10.80;;;;;;;9.84;91.04;98682.77;108258;1286;23258;-57
2022/05/23 02:27:48;;;;;;;19.00;9.80;;;;;;;9.88;90.89;98684.61;108085;1286;139453;-58
2022/05/23 02:30:16;;;;;;;25.00;10.50;;;;;;;9.87;90.92;98685.05;108406;1284;22440;-57
2022/05/23 02:32:45;;;;;;;21.00;10.80;;;;;;;9.87;90.77;98683.46;108288;1284;140190;-57
2022/05/23 02:35:15;;;;;;;20.90;11.20;;;;;;;9.85;90.64;98688.04;108232;1285;22444;-57
2022/05/23 02:37:43;;;;;;;18.50;12.30;;;;;;;9.85;90.82;98690.05;108316;1286;137960;-57
2022/05/23 02:40:14;;;;;;;27.40;11.60;;;;;;;9.84;90.65;98692.82;108320;1284;22458;-57
2022/05/23 02:42:44;;;;;;;24.90;12.50;;;;;;;9.83;90.53;98695.98;108484;1284;23475;-58
2022/05/23 02:45:12;;;;;;;23.00;13.00;;;;;;;9.81;90.57;98701.38;108135;1286;137980;-57
2022/05/23 02:47:43;;;;;;;21.90;12.50;;;;;;;9.79;90.49;98703.73;108227;1286;22445;-58
2022/05/23 02:50:12;;;;;;;23.50;12.40;;;;;;;9.78;90.53;98705.73;108141;1286;139013;-57
2022/05/23 02:52:42;;;;;;;22.40;12.50;;;;;;;9.77;90.64;98706.94;108336;1284;22459;-58
2022/05/23 02:55:32;;;;;;;20.70;12.40;;;;;;;9.75;90.96;98709.77;107733;1286;24450;-57
2022/05/23 02:58:01;;;;;;;19.00;11.50;;;;;;;9.75;91.00;98714.88;108140;1286;138399;-58
2022/05/23 03:00:32;;;;;;;21.70;11.10;;;;;;;9.75;91.13;98715.52;108330;1285;23577;-58
2022/05/23 03:03:03;;;;;;;17.40;9.50;;;;;;;9.77;91.32;98721.73;108192;1286;139617;-58
2022/05/23 03:05:47;;;;;;;16.60;10.50;;;;;;;9.78;91.31;98719.73;108342;1285;22421;-57
2022/05/23 03:08:18;;;;;;;14.20;9.80;;;;;;;9.78;91.30;98720.42;108223;1285;138595;-58
2022/05/23 03:10:46;;;;;;;16.10;10.10;;;;;;;9.79;91.42;98726.04;108456;1285;22412;-58
2022/05/23 03:13:15;;;;;;;12.70;9.50;;;;;;;9.80;91.39;98727.60;108259;1285;22416;-57
2022/05/23 03:15:43;;;;;;;16.00;9.10;;;;;;;9.82;91.57;98727.92;108285;1284;138821;-58
2022/05/23 03:18:12;;;;;;;16.40;9.90;;;;;;;9.84;91.47;98731.34;108648;1282;22441;-57
2022/05/23 03:20:45;;;;;;;13.00;9.10;;;;;;;9.85;91.34;98732.22;108416;1283;139344;-58
2022/05/23 03:28:46;;;;;;;13.90;9.50;;;;;;;9.80;90.94;98737.78;104383;1283;23979;-57
2022/05/23 03:31:14;;;;;;;14.60;8.90;;;;;;;9.78;90.89;98739.48;104166;1283;22583;-57
2022/05/23 03:33:42;;;;;;;16.60;9.40;;;;;;;9.74;90.79;98743.27;108537;1282;138579;-57
2022/05/23 03:36:11;;;;;;;12.20;9.50;;;;;;;9.75;90.93;98744.64;109183;1277;22476;-57
2022/05/23 03:38:46;;;;;;;11.70;8.70;;;;;;;9.73;90.90;98745.71;109030;1278;139236;-58
2022/05/23 03:41:14;;;;;;;17.60;9.10;;;;;;;9.73;90.92;98743.16;108981;1279;23296;-57
2022/05/23 03:43:42;;;;;;;12.20;8.90;;;;;;;9.71;90.95;98742.06;108912;1278;139095;-58
2022/05/23 03:46:12;;;;;;;10.90;7.90;;;;;;;9.72;90.90;98743.09;109026;1279;22409;-58
2022/05/23 03:48:40;;;;;;;12.60;8.30;;;;;;;9.72;90.77;98745.66;109199;1277;22432;-58
2022/05/23 03:51:11;;;;;;;10.20;7.70;;;;;;;9.74;90.84;98742.95;108937;1278;137765;-58
2022/05/23 03:53:39;;;;;;;12.10;8.70;;;;;;;9.77;90.78;98744.96;109053;1279;22439;-58
2022/05/23 03:56:10;;;;;;;14.60;8.80;;;;;;;9.80;90.77;98749.92;108971;1279;139845;-57
2022/05/23 03:58:44;;;;;;;10.40;8.20;;;;;;;9.84;90.86;98745.39;109300;1274;22492;-58
2022/05/23 04:01:22;;;;;;;12.90;8.00;;;;;;;9.86;90.74;98749.30;109390;1274;22386;-58
2022/05/23 04:04:16;;;;;;;11.90;8.30;;;;;;;9.86;90.76;98749.25;109258;1274;138610;-58
2022/05/23 04:07:00;;;;;;;12.20;8.70;;;;;;;9.89;90.93;98750.89;109242;1276;23258;-57
2022/05/23 04:09:32;;;;;;;11.20;8.60;;;;;;;9.90;90.93;98748.45;109009;1277;139413;-57
2022/05/23 04:12:10;;;;;;;10.90;8.90;;;;;;;9.90;90.84;98749.21;109126;1276;22449;-58
2022/05/23 04:14:43;;;;;;;15.20;9.20;;;;;;;9.90;90.87;98747.90;109073;1277;138476;-58
2022/05/23 04:17:11;;;;;;;12.50;8.80;;;;;;;9.91;90.80;98748.50;109134;1276;22425;-58
2022/05/23 04:19:40;;;;;;;12.60;8.50;;;;;;;9.95;90.88;98746.64;109280;1275;22457;-57
2022/05/23 04:22:20;;;;;;;12.00;9.00;;;;;;;10.00;91.01;98746.69;109021;1276;139461;-58
2022/05/23 04:24:58;;;;;;;15.20;9.40;;;;;;;10.07;90.85;98746.27;109206;1277;23143;-58
2022/05/23 04:27:26;;;;;;;10.40;8.50;;;;;;;10.10;90.75;98750.00;109076;1277;137960;-58
2022/05/23 04:29:54;;;;;;;13.80;9.40;;;;;;;10.13;90.75;98744.02;109356;1276;22418;-58
2022/05/23 04:35:27;;;;;;;14.50;9.40;;;;;;;10.21;90.34;98744.58;109231;1276;22348;-58
2022/05/23 04:37:58;;;;;;;17.40;8.90;;;;;;;10.25;90.05;98749.35;109148;1276;138040;-58
2022/05/23 04:40:31;;;;;;;15.60;9.00;;;;;;;10.28;89.61;98746.80;109292;1277;22308;-58
2022/05/23 04:43:01;;;;;;;17.90;10.40;;;;;;;10.33;89.55;98750.39;109284;1275;22417;-57
2022/05/23 04:45:31;;;;;;;14.10;9.90;;;;;;;10.37;89.40;98754.63;109266;1275;139199;-58
2022/05/23 04:51:17;;;;;;;18.90;10.70;;;;;;;10.52;88.55;98752.85;109282;1274;139193;-58
2022/05/23 04:53:53;;;;;;;20.90;9.70;;;;;;;10.59;87.98;98754.41;109265;1276;23175;-58
2022/05/23 04:56:22;;;;;;;21.30;11.50;;;;;;;10.66;87.28;98755.55;109181;1274;139258;-58
2022/05/23 04:58:55;;;;;;;23.00;10.60;;;;;;;10.75;86.91;98752.79;109231;1277;22561;-58
2022/05/23 05:01:23;;;;;;;18.30;10.20;;;;;;;10.86;86.59;98754.33;109169;1277;22451;-58
2022/05/23 05:03:57;;;;;;;17.80;10.60;;;;;;;10.98;86.05;98761.14;109135;1276;140100;-58
2022/05/23 05:06:27;;;;;;;20.20;11.20;;;;;;;11.13;85.40;98756.98;109277;1275;22586;-58
2022/05/23 05:08:55;;;;;;;21.40;9.90;;;;;;;11.30;85.06;98752.91;109114;1276;138243;-58
2022/05/23 05:11:23;;;;;;;16.10;8.90;;;;;;;11.55;83.96;98752.81;109147;1276;22454;-58
2022/05/23 05:14:12;;;;;;;21.50;8.50;;;;;;;11.92;82.58;98755.46;109236;1275;138972;-58
2022/05/23 05:16:45;;;;;;;23.00;12.00;;;;;;;12.30;81.30;98752.88;109237;1276;22638;-58
2022/05/23 05:19:14;;;;;;;23.80;12.00;;;;;;;12.70;80.44;98748.03;109249;1274;22441;-58
2022/05/23 05:21:54;;;;;;;20.40;10.70;;;;;;;13.18;79.24;98750.64;109221;1276;138138;-58
2022/05/23 05:24:22;;;;;;;23.10;10.70;;;;;;;13.66;76.96;98749.42;109397;1275;22436;-58
2022/05/23 05:27:09;;;;;;;20.60;11.60;;;;;;;14.14;74.46;98748.88;109119;1276;138974;-58
2022/05/23 05:29:38;;;;;;;25.60;11.30;;;;;;;14.54;72.36;98749.11;109373;1274;22455;-58
2022/05/23 05:32:36;;;;;;;27.10;14.00;;;;;;;14.88;69.99;98753.61;109237;1274;137728;-58
2022/05/23 05:35:13;;;;;;;;;;;;;;;15.23;67.39;98750.86;109144;1276;23362;-58
2022/05/23 05:37:46;;;;;;;28.30;13.50;;;;;;;15.46;66.65;98755.74;109225;1276;22430;-58
2022/05/23 05:40:19;;;;;;;24.90;12.60;;;;;;;15.74;64.96;98751.06;108965;1277;138855;-58
2022/05/23 05:42:53;;;;;;;23.00;11.90;;;;;;;15.91;63.72;98751.92;109162;1277;22761;-58
2022/05/23 05:45:26;;;;;;;22.50;11.80;;;;;;;16.09;62.92;98753.11;109132;1276;138228;-58
2022/05/23 05:47:55;;;;;;;18.20;10.60;;;;;;;16.31;62.06;98749.39;109205;1276;22518;-58
2022/05/23 05:50:43;;;;;;;18.00;9.10;;;;;;;16.44;59.79;98745.96;109045;1277;137921;-58
2022/05/23 05:53:21;;;;;;;21.60;9.50;;;;;;;16.42;58.58;98742.79;109267;1276;22608;-58
2022/05/23 05:55:51;;;;;;;20.90;8.60;;;;;;;16.38;57.92;98745.35;109287;1276;22936;-58
2022/05/23 05:58:20;;;;;;;16.50;7.20;;;;;;;16.38;57.61;98744.48;109125;1276;137139;-58
2022/05/23 06:00:51;;;;;;;12.10;6.80;;;;;;;16.41;57.49;98746.60;109262;1277;23201;-58
2022/05/23 06:03:20;;;;;;;9.30;6.50;;;;;;;16.27;56.47;98746.27;109142;1276;139362;-58
2022/05/23 06:11:34;;;;;;;11.50;5.60;;;;;;;15.62;57.48;98756.34;109145;1277;22442;-57
2022/05/23 06:14:28;;;;;;;8.70;5.10;;;;;;;15.43;58.27;98758.48;109005;1277;137843;-58
2022/05/23 06:17:05;;;;;;;13.10;6.40;;;;;;;15.29;58.79;98759.25;109138;1277;22464;-58
2022/05/23 06:19:41;;;;;;;12.50;5.50;;;;;;;15.13;58.49;98757.82;109214;1277;22419;-58
2022/05/23 06:22:13;;;;;;;6.50;4.70;;;;;;;14.93;58.59;98758.61;108837;1278;138416;-57
2022/05/23 06:24:51;;;;;;;8.90;4.40;;;;;;;14.76;59.04;98757.84;109189;1277;22547;-57
2022/05/23 06:27:19;;;;;;;7.50;4.40;;;;;;;14.64;58.98;98747.73;109017;1277;138949;-58
2022/05/23 06:30:23;;;;;;;7.40;4.30;;;;;;;14.66;59.55;98758.16;109036;1277;22471;-57
2022/05/23 06:32:58;;;;;;;7.40;4.10;;;;;;;14.62;59.56;98757.95;108983;1277;137486;-58
2022/05/23 06:35:33;;;;;;;5.40;3.90;;;;;;;14.59;59.87;98758.45;108975;1278;22438;-57
2022/05/23 06:38:01;;;;;;;10.10;4.90;;;;;;;14.57;60.33;98766.05;108696;1281;139963;-58
2022/05/23 06:40:52;;;;;;;7.70;3.80;;;;;;;14.57;59.99;98767.73;109144;1277;22295;-57
2022/05/23 06:43:44;;;;;;;8.00;3.60;;;;;;;14.49;60.05;98765.16;109092;1275;22659;-58
2022/05/23 06:46:21;;;;;;;5.90;3.40;;;;;;;14.44;60.35;98769.09;109218;1276;137131;-57
2022/05/23 06:49:18;;;;;;;7.30;3.70;;;;;;;14.38;60.76;98769.23;109229;1277;22420;-57
2022/05/23 06:52:05;;;;;;;5.60;3.40;;;;;;;14.32;60.62;98773.05;109238;1275;137980;-57
2022/05/23 06:54:41;;;;;;;5.00;3.10;;;;;;;14.24;60.70;98771.73;109195;1276;22462;-57
2022/05/23 06:57:13;;;;;;;8.10;3.20;;;;;;;14.22;61.14;98772.04;109104;1277;138404;-57
2022/05/23 06:59:44;;;;;;;5.60;3.00;;;;;;;14.22;60.52;98777.50;109265;1276;23206;-58
2022/05/23 07:02:12;;;;;;;3.30;2.70;;;;;;;14.18;60.19;98773.13;109113;1274;138337;-57
2022/05/23 07:13:42;;;;;;;5.40;3.20;;;;;;;14.10;60.66;98769.05;109288;1274;22472;-60
2022/05/23 07:16:11;;;;;;;7.50;3.70;;;;;;;14.15;61.30;98764.58;109217;1274;137408;-59
2022/05/23 07:18:42;;;;;;;5.20;3.80;;;;;;;14.23;62.48;98763.64;109273;1274;22489;-57
2022/05/23 07:21:18;;;;;;;7.50;3.60;;;;;;;14.33;61.93;98764.55;109224;1274;137443;-57
2022/05/23 07:24:00;;;;;;;7.80;3.70;;;;;;;14.39;61.24;98764.89;109407;1274;22416;-57
2022/05/23 07:26:41;;;;;;;6.30;4.80;;;;;;;14.44;60.61;98766.61;109137;1276;138835;-58
2022/05/23 07:29:09;;;;;;;12.50;4.70;;;;;;;14.46;60.57;98762.84;109436;1274;23463;-57
2022/05/23 07:31:39;;;;;;;12.60;6.20;;;;;;;14.50;60.39;98768.21;109311;1274;22852;-57
2022/05/23 07:34:07;;;;;;;11.90;6.90;;;;;;;14.52;59.55;98764.69;109197;1274;137496;-58
2022/05/23 07:36:35;;;;;;;15.50;7.10;;;;;;;14.47;59.53;98764.05;109341;1274;22476;-57
2022/05/23 07:39:09;;;;;;;13.40;7.70;;;;;;;14.48;59.51;98763.80;109103;1277;138025;-57
2022/05/23 07:41:48;;;;;;;10.40;6.90;;;;;;;14.49;59.32;98768.27;109270;1274;23856;-58
2022/05/23 07:44:20;;;;;;;15.20;9.20;;;;;;;14.52;59.76;98767.25;109261;1276;22421;-58
2022/05/23 07:46:49;;;;;;;22.30;10.80;;;;;;;14.57;60.54;98765.34;109153;1277;137337;-57
2022/05/23 07:49:18;;;;;;;11.00;7.30;;;;;;;14.65;60.81;98768.38;109440;1274;22382;-58
2022/05/23 07:52:02;;;;;;;11.20;6.90;;;;;;;14.73;57.72;98771.99;109311;1274;137639;-58
2022/05/23 08:00:32;;;;;;;11.70;5.70;;;;;;;14.86;55.85;98771.48;108633;1282;22355;-57
2022/05/23 08:03:13;;;;;;;17.40;6.60;;;;;;;14.90;55.44;98773.55;108518;1281;138754;-58
2022/05/23 08:05:44;;;;;;;12.70;6.90;;;;;;;14.94;55.69;98780.22;108488;1283;23265;-58
2022/05/23 08:08:13;;;;;;;17.50;8.90;;;;;;;14.97;54.40;98776.20;108622;1282;22506;-58
2022/05/23 08:10:41;;;;;;;13.20;7.00;;;;;;;14.98;54.58;98775.64;108620;1281;137664;-58
2022/05/23 08:13:09;;;;;;;16.10;8.50;;;;;;;15.00;54.48;98773.38;108633;1281;22455;-58
2022/05/23 08:15:40;;;;;;;20.50;10.40;;;;;;;15.00;54.90;98769.77;108553;1282;138378;-57
2022/05/23 08:18:12;;;;;;;17.40;10.00;;;;;;;15.03;55.39;98765.92;108657;1281;22463;-59
2022/05/23 08:20:49;;;;;;;19.70;9.60;;;;;;;15.08;55.50;98760.67;108473;1283;138445;-59
2022/05/23 08:23:18;;;;;;;14.50;9.00;;;;;;;15.15;56.51;98759.86;108587;1281;22456;-59
2022/05/23 08:26:02;;;;;;;14.90;9.40;;;;;;;15.26;56.84;98758.06;108757;1281;22466;-59
2022/05/23 08:28:32;;;;;;;16.50;8.30;;;;;;;15.34;55.31;98754.56;108518;1281;138752;-59
2022/05/23 08:31:01;;;;;;;13.50;7.90;;;;;;;15.37;55.85;98758.13;108653;1282;22505;-59
2022/05/23 08:33:35;;;;;;;15.30;8.70;;;;;;;15.40;54.86;98757.52;108480;1282;138259;-59
2022/05/23 08:36:20;;;;;;;11.30;7.70;;;;;;;15.37;54.17;98751.77;109460;1274;22430;-58
2022/05/23 08:38:48;;;;;;;12.00;7.60;;;;;;;15.32;54.33;98753.67;109134;1276;138606;-58
2022/05/23 08:41:40;;;;;;;10.70;6.80;;;;;;;15.25;54.89;98757.08;109341;1274;22238;-58
2022/05/23 08:44:45;;;;;;;11.90;6.10;;;;;;;15.19;54.61;98754.61;109228;1276;22413;-58
2022/05/23 08:47:43;;;;;;;9.80;6.10;;;;;;;15.14;54.99;98759.45;109324;1275;22450;-59
2022/05/23 08:50:37;;;;;;;6.10;4.30;;;;;;;15.11;55.62;98761.77;109262;1274;22704;-59
2022/05/23 08:53:26;;;;;;;7.30;4.10;;;;;;;15.10;56.07;98766.02;109181;1274;137864;-59
2022/05/23 08:56:33;;;;;;;7.80;3.70;;;;;;;15.08;55.85;98767.26;109392;1277;22663;-59
2022/05/23 08:59:19;;;;;;;;;;;;;;;15.04;55.69;98763.27;109082;1274;139075;-58
2022/05/23 09:01:49;;;;;;;10.20;5.60;;;;;;;15.05;55.72;98765.77;109212;1274;22560;-58
2022/05/23 09:04:24;;;;;;;7.60;5.00;;;;;;;15.06;55.82;98771.30;109081;1274;139502;-58
2022/05/23 09:06:56;;;;;;;9.70;4.40;;;;;;;15.07;55.88;98771.45;109043;1276;22468;-59
2022/05/23 09:09:30;;;;;;;7.60;4.40;;;;;;;15.11;55.81;98773.68;109239;1273;137595;-59
2022/05/23 09:12:10;;;;;;;8.00;3.40;;;;;;;15.12;55.71;98777.28;109380;1274;22496;-58
2022/05/23 09:14:42;;;;;;;8.20;3.80;;;;;;;15.14;55.91;98775.20;109315;1276;22447;-59
2022/05/23 09:17:22;;;;;;;8.70;4.40;;;;;;;15.17;55.88;98779.52;109206;1276;137293;-58
2022/05/23 09:20:05;;;;;;;8.20;4.30;;;;;;;15.21;55.96;98782.57;109304;1277;22418;-59
2022/05/23 09:22:43;;;;;;;7.80;4.40;;;;;;;15.25;55.91;98779.25;109140;1274;137657;-59
2022/05/23 09:25:13;;;;;;;5.90;3.80;;;;;;;15.27;56.40;98779.29;109363;1276;22624;-58
2022/05/23 09:28:00;;;;;;;6.70;3.90;;;;;;;15.28;55.72;98775.68;109005;1274;138881;-59
2022/05/23 09:30:29;;;;;;;9.00;4.80;;;;;;;15.24;55.19;98778.08;109299;1276;23174;-58
2022/05/23 09:33:10;;;;;;;5.70;4.00;;;;;;;15.18;55.48;98777.40;109127;1277;137474;-59
2022/05/23 09:35:41;;;;;;;5.80;3.60;;;;;;;15.14;56.22;98777.98;109255;1275;22437;-58
2022/05/23 09:38:16;;;;;;;6.60;4.00;;;;;;;15.14;56.52;98781.24;109376;1274;22407;-58
2022/05/23 09:41:00;;;;;;;5.50;3.60;;;;;;;15.13;55.97;98780.55;109129;1276;138389;-59
2022/05/23 09:49:17;;;;;;;8.90;4.50;;;;;;;14.99;55.70;98780.88;109372;1275;22449;-58
2022/05/23 09:51:54;;;;;;;11.90;4.80;;;;;;;14.93;56.37;98780.06;109277;1274;138094;-59
2022/05/23 09:54:36;;;;;;;7.10;4.20;;;;;;;14.96;56.35;98783.09;109344;1274;23266;-59
2022/05/23 09:57:28;;;;;;;10.00;4.50;;;;;;;14.95;55.74;98782.50;109181;1276;138027;-59
2022/05/23 10:00:05;;;;;;;7.30;4.40;;;;;;;14.93;55.63;98779.80;109309;1276;23136;-59
2022/05/23 10:02:47;;;;;;;10.40;4.20;;;;;;;14.95;55.95;98777.66;109399;1274;22468;-58
2022/05/23 10:05:27;;;;;;;9.80;5.30;;;;;;;15.04;55.10;98775.56;109366;1274;137289;-59
2022/05/23 10:07:59;;;;;;;7.90;5.60;;;;;;;15.18;55.29;98771.17;109388;1274;23097;-59
2022/05/23 10:10:34;;;;;;;7.70;3.90;;;;;;;15.30;55.00;98773.82;109324;1274;138535;-59
2022/05/23 10:13:29;;;;;;;4.10;2.70;;;;;;;15.45;54.04;98772.62;109478;1273;22442;-59
2022/05/23 10:16:10;;;;;;;4.70;2.30;;;;;;;15.59;50.87;98773.88;109355;1274;138834;-59
2022/05/23 10:19:00;;;;;;;5.30;3.70;;;;;;;15.69;49.12;98768.94;109500;1273;22414;-58
2022/05/23 10:21:36;;;;;;;8.60;3.70;;;;;;;15.76;49.83;98773.63;109286;1274;137370;-58
2022/05/23 10:24:14;;;;;;;6.90;3.80;;;;;;;15.80;49.12;98776.13;109308;1274;23184;-59
2022/05/23 10:26:54;;;;;;;7.40;3.70;;;;;;;15.78;48.01;98772.82;109336;1274;23137;-58
2022/05/23 10:29:40;;;;;;;9.70;3.60;;;;;;;15.74;48.42;98781.27;109157;1274;139321;-59
2022/05/23 10:32:10;;;;;;;4.70;2.70;;;;;;;15.66;48.67;98794.27;109472;1274;22430;-58
2022/05/23 10:34:42;;;;;;;4.00;3.30;;;;;;;15.49;48.70;98795.31;109156;1274;138538;-58
2022/05/23 10:37:32;;;;;;;6.20;2.50;;;;;;;15.31;49.50;98798.89;109339;1273;23188;-59
2022/05/23 10:43:07;;;;;;;3.70;2.60;;;;;;;14.98;49.79;98807.61;109509;1273;22441;-58
2022/05/23 10:45:59;;;;;;;4.80;2.20;;;;;;;14.80;50.61;98803.96;109388;1272;138384;-58
2022/05/23 10:48:39;;;;;;;4.70;2.60;;;;;;;14.70;51.49;98805.64;109493;1273;22616;-58
2022/05/23 10:51:25;;;;;;;5.80;2.40;;;;;;;14.63;51.58;98805.64;109111;1274;137551;-58
2022/05/23 10:54:11;;;;;;;8.00;2.60;;;;;;;14.57;51.97;98806.52;109490;1273;22430;-58
2022/05/23 10:56:46;;;;;;;4.10;2.20;;;;;;;14.55;52.51;98809.36;109452;1271;23074;-58
2022/05/23 11:00:06;;;;;;;8.30;3.00;;;;;;;14.57;52.56;98813.65;109346;1274;137664;-58
2022/05/23 11:02:50;;;;;;;7.20;2.80;;;;;;;14.61;52.74;98819.83;108519;1284;22423;-58
2022/05/23 11:05:38;;;;;;;6.00;3.10;;;;;;;14.63;52.58;98815.80;108366;1284;138986;-58
2022/05/23 11:08:28;;;;;;;4.10;2.60;;;;;;;14.66;52.54;98814.98;108314;1284;22573;-58
2022/05/23 11:11:15;;;;;;;2.90;2.00;;;;;;;14.72;51.82;98821.20;108329;1284;138078;-59
2022/05/23 11:14:10;;;;;;;4.50;1.90;;;;;;;14.76;51.10;98821.14;108252;1284;22488;-58
2022/05/23 11:17:24;;;;;;;4.70;1.80;;;;;;;14.82;50.72;98826.97;108333;1282;138471;-58
2022/05/23 11:20:00;;;;;;;2.80;2.00;;;;;;;14.88;50.51;98827.38;107939;1288;23172;-58
2022/05/23 11:22:30;;;;;;;5.80;2.10;;;;;;;14.90;50.77;98821.81;107815;1287;137477;-59
2022/05/23 11:25:25;;;;;;;3.80;2.00;;;;;;;14.92;51.39;98819.96;107556;1290;23236;-58
2022/05/23 11:33:49;;;;;;;3.90;1.60;;;;;;;15.03;50.75;98816.45;107553;1290;137789;-58
2022/05/23 11:36:32;;;;;;;12.30;2.70;;;;;;;15.04;49.97;98810.84;107940;1288;22484;-59
2022/05/23 11:38:59;;;;;;;4.70;2.10;;;;;;;15.07;50.18;98812.66;107884;1284;138690;-62
2022/05/23 11:41:39;;;;;;;3.80;1.80;;;;;;;15.08;49.94;98810.27;108530;1282;22724;-58
2022/05/23 11:44:35;;;;;;;4.60;2.30;;;;;;;15.10;49.07;98802.61;108652;1282;23361;-59
2022/05/23 11:47:21;;;;;;;3.00;2.00;;;;;;;15.14;49.66;98803.25;108483;1282;137607;-58
2022/05/23 11:49:58;;;;;;;3.70;2.30;;;;;;;15.16;49.94;98803.35;108499;1282;22555;-58
2022/05/23 11:52:30;;;;;;;5.50;2.00;;;;;;;15.18;50.14;98807.36;108227;1282;138296;-58
2022/05/23 11:54:57;;;;;;;6.80;2.80;;;;;;;15.20;49.61;98806.90;108360;1282;22276;-58
2022/05/23 11:57:42;;;;;;;8.90;2.90;;;;;;;15.22;49.84;98808.90;105115;1274;137590;-58
2022/05/23 12:00:36;;;;;;;4.80;2.40;;;;;;;15.23;49.60;98809.04;109253;1274;23336;-58
2022/05/23 12:03:11;;;;;;;5.70;2.50;;;;;;;15.23;49.45;98809.33;109164;1274;138630;-59
2022/05/23 12:05:38;;;;;;;6.00;3.00;;;;;;;15.21;48.61;98809.95;109389;1274;22416;-58
2022/05/23 12:08:06;;;;;;;5.70;2.80;;;;;;;15.18;48.93;98807.98;109392;1273;22467;-59
2022/05/23 12:10:36;;;;;;;9.40;2.80;;;;;;;15.18;49.30;98809.39;109166;1274;139199;-58
2022/05/23 12:13:30;;;;;;;6.30;3.10;;;;;;;15.22;49.92;98811.02;109384;1274;22550;-58
2022/05/23 12:15:58;;;;;;;5.20;2.90;;;;;;;15.30;50.79;98812.30;109230;1274;137487;-59
2022/05/23 12:18:25;;;;;;;4.40;2.70;;;;;;;15.37;50.69;98813.91;109351;1274;22470;-59
2022/05/23 12:20:54;;;;;;;4.90;2.10;;;;;;;15.44;50.54;98814.05;109371;1274;22424;-58
2022/05/23 12:23:42;;;;;;;9.60;2.60;;;;;;;15.49;50.12;98811.77;109222;1274;137294;-58
2022/05/23 12:26:09;;;;;;;;;;;;;;;15.56;49.82;98810.06;107550;1274;22572;-58
2022/05/23 12:28:48;;;;;;;3.40;1.90;;;;;;;15.61;49.90;98809.40;104797;1274;124837;-58
2022/05/23 12:31:23;;;;;;;7.30;2.10;;;;;;;15.65;49.80;98800.05;105004;1274;24230;-58
2022/05/23 12:33:52;;;;;;;6.40;2.30;;;;;;;15.73;49.43;98799.70;109168;1274;139141;-59
2022/05/23 12:36:21;;;;;;;3.50;2.10;;;;;;;15.79;49.58;98799.38;109354;1274;22432;-58
2022/05/23 12:39:25;;;;;;;5.20;2.10;;;;;;;15.84;48.31;98796.41;109071;1274;23251;-59
2022/05/23 12:42:18;;;;;;;3.70;2.10;;;;;;;15.89;47.55;98800.56;109473;1274;22519;-59
2022/05/23 12:45:04;;;;;;;4.00;2.60;;;;;;;15.96;47.24;98798.02;109320;1274;22986;-59
2022/05/23 12:48:06;;;;;;;2.70;2.30;;;;;;;16.06;47.76;98799.31;109147;1274;137800;-59
2022/05/23 12:50:54;;;;;;;4.90;1.90;;;;;;;16.19;47.42;98804.52;108799;1280;23576;-59
2022/05/23 12:53:45;;;;;;;5.20;2.40;;;;;;;16.30;46.81;98804.67;108474;1281;138355;-59
2022/05/23 12:56:50;;;;;;;5.40;2.00;;;;;;;16.34;46.91;98807.41;106939;1281;22576;-58